• Join FlightAware (Why Join?)
  • Login
  • US Flag 
12:53PM EDT


 

Airport Tracker/Info


-or-


 

Live Flight TrackerFlight Track Log ✈ SKW5515 ✈ 11-Nov-2013 ✈ KDEN - KMSO

Flight Track Log - Related Links

Times and Time Zones

All times are in EST time to prevent confusion due to time zone crossing. See the SKW5515 flight status page for this flight to view local times or setup timezone preferences in your user account.

Time Position Orientation Groundspeed Altitude Reporting Facility
EST Latitude Longitude Course Direction KTS MPH feet Rate Location/Type
12:18AM 39.9333 -104.6833 346° North 193 222 7,400  Level Denver TRACON
12:18AM 39.9833 -104.6667 14° North 230 265 8,600 1,680 Climbing Denver TRACON
12:19AM 40.0667 -104.6667 360° North 275 316 10,600 1,560 Climbing Denver TRACON
12:20AM 40.1021 -104.9465 346° North  Level Estimated
12:20AM 40.1500 -104.6833 351° North 314 361 11,800  Level Denver TRACON
12:21AM 40.1821 -105.0380 346° North  Level Estimated
12:22AM 40.2621 -105.1298 348° North  Level Estimated
12:22AM 40.2333 -104.7000 351° North 294 338 13,600  Level Denver TRACON
12:22AM 40.3333 -104.7333 346° North 317 365 16,100 1,860 Climbing Denver TRACON
12:23AM 40.3385 -105.2178 346° North  Level Estimated
12:24AM 40.4428 -104.7594 350° North 338 389 17,800  Level Denver Center
12:25AM 40.5361 -104.7853 348° North 346 398 19,300 1,380 Climbing Denver Center
12:26AM 40.6314 -104.8094 349° North 347 399 20,700 1,200 Climbing Denver Center
12:27AM 40.7356 -104.8383 348° North 355 409 21,800 1,020 Climbing Denver Center
12:28AM 40.8192 -104.8644 347° North 349 402 22,800 1,080 Climbing Denver Center
12:29AM 40.9117 -104.9097 340° North 354 407 24,000 1,080 Climbing Denver Center
12:30AM 41.0097 -104.9750 333° Northwest 355 409 25,100 900 Climbing Denver Center
12:31AM 41.0772 -105.0653 315° West 361 415 25,900 780 Climbing Denver Center
12:32AM 41.1542 -105.1669 315° West 353 406 26,800 780 Climbing Denver Center
12:33AM 41.2217 -105.2561 315° West 357 411 27,500 540 Climbing Denver Center
12:34AM 41.2892 -105.3469 315° West 360 414 28,000 540 Climbing Denver Center
12:35AM 41.3581 -105.4381 315° West 364 419 28,600 720 Climbing Denver Center
12:36AM 41.4367 -105.5456 314° West 363 418 29,500 840 Climbing Denver Center
12:37AM 41.5025 -105.6325 315° West 352 405 30,300 720 Climbing Denver Center
12:38AM 41.5669 -105.7217 314° West 349 402 31,000 720 Climbing Denver Center
12:39AM 41.6406 -105.8214 315° West 340 391 31,800 480 Climbing Denver Center
12:40AM 41.7039 -105.9067 315° West 338 389 32,000 60 Climbing Denver Center
12:41AM 41.7678 -105.9953 314° West 341 392 32,000  Level Denver Center
12:42AM 41.8461 -106.1014 315° West 356 410 32,000  Level Denver Center
12:43AM 41.9133 -106.1942 314° West 361 415 32,000  Level Denver Center
12:44AM 41.9806 -106.2881 314° West 363 418 32,000  Level Denver Center
12:45AM 42.0619 -106.3981 315° West 368 423 32,000  Level Denver Center
12:46AM 42.1275 -106.4933 313° West 364 419 32,000  Level Denver Center
12:47AM 42.1994 -106.5925 314° West 373 429 32,000  Level Denver Center
12:48AM 42.2808 -106.7061 314° West 378 435 32,000  Level Denver Center
12:49AM 42.3497 -106.8031 314° West 375 432 32,000  Level Denver Center
12:50AM 42.4208 -106.9014 314° West 380 437 32,000  Level Denver Center
12:51AM 42.5011 -107.0175 313° West 381 438 32,000  Level Denver Center
12:52AM 42.5719 -107.1156 314° West 381 438 32,000  Level Denver Center
12:53AM 42.6403 -107.2175 312° West 382 440 32,000  Level Denver Center
12:54AM 42.7233 -107.3319 315° West 381 438 32,000  Level Denver Center
12:55AM 42.7936 -107.4314 314° West 381 438 32,000  Level Denver Center
12:56AM 42.8631 -107.5331 313° West 383 441 32,000  Level Denver Center
12:57AM 42.9336 -107.6344 314° West 386 444 32,000  Level Salt Lake Center
12:58AM 43.0058 -107.7425 312° West 393 452 32,000  Level Salt Lake Center
12:59AM 43.0794 -107.8486 314° West 386 444 32,000  Level Salt Lake Center
01:00AM 43.1669 -107.9778 313° West 386 444 32,000  Level Salt Lake Center
01:01AM 43.2408 -108.0867 313° West 391 450 32,000  Level Salt Lake Center
01:02AM 43.3139 -108.1936 313° West 386 444 32,000  Level Salt Lake Center
01:03AM 43.3861 -108.3014 313° West 385 443 32,000  Level Salt Lake Center
01:04AM 43.4586 -108.4097 313° West 385 443 32,000  Level Salt Lake Center
01:05AM 43.5325 -108.5206 313° West 392 451 32,000  Level Salt Lake Center
01:06AM 43.6047 -108.6283 313° West 386 444 32,000  Level Salt Lake Center
01:07AM 43.6772 -108.7375 313° West 386 444 32,000  Level Salt Lake Center
01:08AM 43.7500 -108.8458 313° West 384 442 32,000  Level Salt Lake Center
01:09AM 43.8231 -108.9558 313° West 386 444 32,000  Level Salt Lake Center
01:10AM 43.8958 -109.0661 313° West 387 445 32,000  Level Salt Lake Center
01:11AM 43.9683 -109.1767 312° West 387 445 32,000  Level Salt Lake Center
01:12AM 44.0411 -109.2883 312° West 390 449 32,000  Level Salt Lake Center
01:13AM 44.1142 -109.4006 312° West 391 450 32,000  Level Salt Lake Center
01:14AM 44.1897 -109.5119 313° West 392 451 32,000  Level Salt Lake Center
01:15AM 44.2697 -109.6375 312° West 390 449 32,000  Level Salt Lake Center
01:16AM 44.3381 -109.7436 312° West 387 445 32,000  Level Salt Lake Center
01:17AM 44.4047 -109.8486 312° West 381 438 32,000  Level Salt Lake Center
01:18AM 44.4831 -109.9719 312° West 379 436 32,000  Level Salt Lake Center
01:19AM 44.5503 -110.0783 312° West 381 438 32,000  Level Salt Lake Center
01:20AM 44.6147 -110.1828 311° West 375 432 32,000  Level Salt Lake Center
01:21AM 44.6936 -110.3078 312° West 384 442 32,000  Level Salt Lake Center
01:22AM 44.7614 -110.4153 312° West 387 445 32,000  Level Salt Lake Center
01:23AM 44.8283 -110.5217 312° West 383 441 32,000  Level Salt Lake Center
01:24AM 44.9075 -110.6497 311° West 389 448 32,000  Level Salt Lake Center
01:25AM 44.9758 -110.7581 312° West 388 447 32,000  Level Salt Lake Center
01:26AM 45.0442 -110.8683 311° West 391 450 32,000  Level Salt Lake Center
01:27AM 45.1244 -110.9994 311° West 392 451 32,000  Level Salt Lake Center
01:28AM 45.1922 -111.1086 311° West 393 452 32,000  Level Salt Lake Center
01:29AM 45.2653 -111.2311 310° West 398 458 32,000  Level Salt Lake Center
01:30AM 45.3397 -111.3528 311° West 400 460 32,000  Level Salt Lake Center
01:31AM 45.4128 -111.4764 310° West 400 460 32,000  Level Salt Lake Center
01:32AM 45.4872 -111.5994 311° West 402 463 32,000  Level Salt Lake Center
01:34AM 45.5614 -111.7242 310° West 403 464 32,000  Level Salt Lake Center
01:35AM 45.6303 -111.8386 311° West 403 464 32,000  Level Salt Lake Center
01:36AM 45.7042 -111.9644 310° West 405 466 32,000  Level Salt Lake Center
01:37AM 45.7783 -112.0914 310° West 407 468 32,000  Level Salt Lake Center
01:38AM 45.8531 -112.2181 310° West 408 470 32,000  Level Salt Lake Center
01:39AM 45.9275 -112.3461 310° West 410 472 32,000  Level Salt Lake Center
01:40AM 46.0025 -112.4744 310° West 412 474 32,000  Level Salt Lake Center
01:41AM 46.0747 -112.6058 308° West 412 474 32,000  Level Salt Lake Center
01:42AM 46.1233 -112.7461 297° West 415 478 32,000  Level Salt Lake Center
01:43AM 46.1781 -112.8972 298° West 417 480 32,000  Level Salt Lake Center
01:44AM 46.2314 -113.0497 297° West 419 482 32,000 -1,080 Level Salt Lake Center
01:45AM 46.2897 -113.2025 299° West 426 490 29,900 -2,040 Descending Salt Lake Center
01:46AM 46.3367 -113.3294 298° West 422 486 28,000 -1,920 Descending Salt Lake Center
01:47AM 46.3903 -113.4781 298° West 417 480 26,100 -1,980 Descending Salt Lake Center
01:48AM 46.4442 -113.6292 297° West 422 486 24,100 -2,040 Descending Salt Lake Center
01:49AM 46.4978 -113.7833 297° West 427 491 22,000 -2,220 Descending Salt Lake Center
01:50AM 46.5625 -113.9656 297° West 426 490 19,700 -2,160 Descending Salt Lake Center
01:51AM 46.6128 -114.1133 296° West 412 474 17,700 -1,740 Descending Salt Lake Center
01:52AM 46.6633 -114.2567 297° West 399 459 16,200 -1,800 Descending Salt Lake Center
01:53AM 46.7108 -114.3969 296° West 387 445 14,100 -2,040 Descending Salt Lake Center
01:54AM 46.7556 -114.5267 297° West 363 418 12,200 -1,020 Descending Salt Lake Center
01:55AM 46.7925 -114.6339 297° West 292 336 12,100 -60 Descending Salt Lake Center
01:56AM 46.8481 -114.6769 332° Northwest 233 268 12,100  Level Salt Lake Center
01:57AM 46.9175 -114.6861 355° North 248 285 12,100 -300 Level Salt Lake Center
01:58AM 46.9853 -114.6928 356° North 245 282 11,600 -780 Descending Salt Lake Center
01:59AM 47.0561 -114.6561 19° North 251 289 10,600 -600 Descending Salt Lake Center
02:00AM 47.1169 -114.6078 28° Northeast 249 287 10,500 -60 Descending Salt Lake Center
02:01AM 47.1508 -114.5375 55° Northeast 230 265 10,500 -420 Level Salt Lake Center
02:02AM 47.1308 -114.4589 110° East 213 245 9,700 -1,080 Descending Salt Lake Center
02:03AM 47.0908 -114.3967 133° Southeast 210 242 8,400 -1,200 Descending Salt Lake Center
02:04AM 47.0572 -114.3350 129° Southeast 197 227 7,400 -1,020 Descending Salt Lake Center
02:05AM 47.0236 -114.2778 131° Southeast 187 215 6,400 -960 Descending Salt Lake Center
02:06AM 46.9956 -114.2281 130° Southeast 165 190 5,500 -900 Descending Salt Lake Center
02:07AM 46.9678 -114.1814 131° Southeast 156 180 4,700 -840 Descending Salt Lake Center
02:08AM 46.9433 -114.1386 130° Southeast 142 163 3,900 -720 Descending Salt Lake Center
02:09AM 46.9217 -114.1019 131° Southeast 140 161 3,300 -600 Descending Salt Lake Center
02:11AM 46.9163 -114.0906 132° Southeast  Level Estimated